createdAt,value
2022-12-17T00:01:43.388Z,83.82
2022-12-17T00:04:29.053Z,65.55
2022-12-17T00:07:15.389Z,69.70
2022-12-17T00:10:00.708Z,75.90
2022-12-17T00:12:46.133Z,71.18
2022-12-17T00:15:31.366Z,73.35
2022-12-17T00:18:22.440Z,62.67
2022-12-17T00:21:12.088Z,75.55
2022-12-17T00:23:57.274Z,64.47
2022-12-17T00:26:43.104Z,72.10
2022-12-17T00:29:28.762Z,70.80
2022-12-17T00:32:16.131Z,69.80
2022-12-17T00:35:02.910Z,73.88
2022-12-17T00:37:48.510Z,68.40
2022-12-17T00:40:33.851Z,80.95
2022-12-17T00:43:19.736Z,85.22
2022-12-17T00:46:07.411Z,78.72
2022-12-17T00:48:52.532Z,82.28
2022-12-17T00:51:39.617Z,91.70
2022-12-17T00:54:24.869Z,98.20
2022-12-17T00:57:06.931Z,88.05
2022-12-17T00:59:53.219Z,87.60
2022-12-17T01:02:42.154Z,90.95
2022-12-17T01:05:28.033Z,91.70
2022-12-17T01:08:14.666Z,88.63
2022-12-17T01:11:00.617Z,84.40
2022-12-17T01:13:46.468Z,82.07
2022-12-17T01:16:33.878Z,86.75
2022-12-17T01:19:20.271Z,82.07
2022-12-17T01:22:17.035Z,77.15
2022-12-17T01:25:04.148Z,71.93
2022-12-17T01:27:49.639Z,72.15
2022-12-17T01:30:35.294Z,88.88
2022-12-17T01:33:22.152Z,72.63
2022-12-17T01:36:08.542Z,77.53
2022-12-17T01:38:53.998Z,84.85
2022-12-17T01:41:40.581Z,74.63
2022-12-17T01:45:03.951Z,65.15
2022-12-17T01:47:53.783Z,83.63
2022-12-17T01:50:43.726Z,66.13
2022-12-17T01:53:30.562Z,81.50
2022-12-17T01:56:17.381Z,78.07
2022-12-17T01:59:04.793Z,84.07
2022-12-17T02:01:49.348Z,67.82
2022-12-17T02:04:35.553Z,74.35
2022-12-17T02:07:45.017Z,78.88
2022-12-17T02:10:42.530Z,69.18
2022-12-17T02:13:34.614Z,71.32
2022-12-17T02:16:27.831Z,73.82
2022-12-17T02:19:18.161Z,73.10
2022-12-17T02:22:08.364Z,68.13
2022-12-17T02:25:02.609Z,62.20
2022-12-17T02:27:50.859Z,77.18
2022-12-17T02:30:37.825Z,65.15
2022-12-17T02:33:23.532Z,56.08
2022-12-17T02:36:13.769Z,64.40
2022-12-17T02:38:58.978Z,59.58
2022-12-17T02:41:48.653Z,65.85
2022-12-17T02:44:40.119Z,57.42
2022-12-17T02:47:28.664Z,60.22
2022-12-17T02:50:14.996Z,66.57
2022-12-17T02:53:07.867Z,52.50
2022-12-17T02:55:54.611Z,60.07
2022-12-17T02:58:39.979Z,57.70
2022-12-17T03:01:27.146Z,61.05
2022-12-17T03:04:13.195Z,58.90
2022-12-17T03:07:03.123Z,60.97
2022-12-17T03:09:48.381Z,58.65
2022-12-17T03:12:33.670Z,62.63
2022-12-17T03:15:19.117Z,65.45
2022-12-17T03:18:05.922Z,61.42
2022-12-17T03:20:51.566Z,56.17
2022-12-17T03:23:36.906Z,54.88
2022-12-17T03:26:23.182Z,57.55
2022-12-17T03:29:08.511Z,53.78
2022-12-17T03:31:53.975Z,52.97
2022-12-17T03:34:40.681Z,42.10
2022-12-17T03:37:26.314Z,54.75
2022-12-17T03:40:11.590Z,51.22
2022-12-17T03:42:56.717Z,46.97
2022-12-17T03:45:42.157Z,39.50
2022-12-17T03:48:30.431Z,41.25
2022-12-17T03:51:17.803Z,46.05
2022-12-17T03:54:03.698Z,44.30
2022-12-17T03:56:49.533Z,42.38
2022-12-17T03:59:35.204Z,47.75
2022-12-17T04:02:21.069Z,46.63
2022-12-17T04:05:06.605Z,55.22
2022-12-17T04:07:53.483Z,45.95
2022-12-17T04:10:38.734Z,41.20
2022-12-17T04:13:24.181Z,47.63
2022-12-17T04:16:24.058Z,55.78
2022-12-17T04:19:17.798Z,54.78
2022-12-17T04:22:03.038Z,59.63
2022-12-17T04:24:49.582Z,54.17
2022-12-17T04:27:34.771Z,53.00
2022-12-17T04:30:19.912Z,59.63
2022-12-17T04:33:05.193Z,54.58
2022-12-17T04:35:46.945Z,52.97
2022-12-17T04:38:32.399Z,60.40
2022-12-17T04:41:18.869Z,56.20
2022-12-17T04:44:04.189Z,55.35
2022-12-17T04:46:49.659Z,53.65
2022-12-17T04:49:34.931Z,64.00
2022-12-17T04:52:20.177Z,64.28
2022-12-17T04:55:05.400Z,55.63
2022-12-17T04:57:52.199Z,56.35
2022-12-17T05:00:37.985Z,56.22
2022-12-17T05:03:24.799Z,57.67
2022-12-17T05:06:10.042Z,60.28
2022-12-17T05:08:55.237Z,70.70
2022-12-17T05:11:41.393Z,50.85
2022-12-17T05:14:28.217Z,57.78
2022-12-17T05:17:13.927Z,55.95
2022-12-17T05:19:59.035Z,53.35
2022-12-17T05:22:44.326Z,42.83
2022-12-17T05:25:29.557Z,44.25
2022-12-17T05:28:15.074Z,46.08
2022-12-17T05:31:02.289Z,51.78
2022-12-17T05:33:47.633Z,47.60
2022-12-17T05:36:32.997Z,42.00
2022-12-17T05:39:18.427Z,38.95
2022-12-17T05:42:03.817Z,41.17
2022-12-17T05:44:48.985Z,39.47
2022-12-17T05:47:47.176Z,38.20
2022-12-17T05:50:32.487Z,38.22
2022-12-17T05:53:20.360Z,45.60
2022-12-17T05:56:13.561Z,41.88
2022-12-17T05:58:58.999Z,43.85
2022-12-17T06:01:44.375Z,48.00
2022-12-17T06:04:30.970Z,39.47
2022-12-17T06:07:16.199Z,38.30
2022-12-17T06:10:01.346Z,33.72
2022-12-17T06:12:46.471Z,41.63
2022-12-17T06:15:31.537Z,38.08
2022-12-17T06:18:17.429Z,38.90
2022-12-17T06:21:04.723Z,43.35
2022-12-17T06:23:50.308Z,40.85
2022-12-17T06:26:35.545Z,42.85
2022-12-17T06:29:20.981Z,49.08
2022-12-17T06:32:06.158Z,46.03
2022-12-17T06:34:51.675Z,46.50
2022-12-17T06:37:38.423Z,42.65
2022-12-17T06:40:39.439Z,46.35
2022-12-17T06:43:24.829Z,47.65
2022-12-17T06:46:10.710Z,47.72
2022-12-17T06:48:56.091Z,50.35
2022-12-17T06:51:41.406Z,43.72
2022-12-17T06:54:28.185Z,46.80
2022-12-17T06:57:13.408Z,44.25
2022-12-17T06:59:58.908Z,48.03
2022-12-17T07:02:49.620Z,49.40
2022-12-17T07:05:35.396Z,46.05
2022-12-17T07:08:20.690Z,50.65
2022-12-17T07:11:06.477Z,49.13
2022-12-17T07:13:51.843Z,48.10
2022-12-17T07:16:37.380Z,49.53
2022-12-17T07:19:26.998Z,45.42
2022-12-17T07:22:13.035Z,58.08
2022-12-17T07:24:58.368Z,45.22
2022-12-17T07:27:45.418Z,45.42
2022-12-17T07:30:31.283Z,55.80
2022-12-17T07:33:17.946Z,46.28
2022-12-17T07:36:11.545Z,51.03
2022-12-17T07:41:41.667Z,45.55
2022-12-17T07:44:28.678Z,44.90
2022-12-17T07:47:14.641Z,48.97
2022-12-17T07:49:59.787Z,56.00
2022-12-17T07:52:45.071Z,46.75
2022-12-17T07:55:30.513Z,46.00
2022-12-17T07:58:20.056Z,47.30
2022-12-17T08:01:07.228Z,47.28
2022-12-17T08:03:52.437Z,54.25
2022-12-17T08:06:58.408Z,56.03
2022-12-17T08:09:46.187Z,50.00
2022-12-17T08:12:31.626Z,48.83
2022-12-17T08:15:16.895Z,54.25
2022-12-17T08:18:03.427Z,50.50
2022-12-17T08:20:50.202Z,49.83
2022-12-17T08:23:35.914Z,47.28
2022-12-17T08:26:21.516Z,48.50
2022-12-17T08:29:06.938Z,53.08
2022-12-17T08:31:48.652Z,51.35
2022-12-17T08:34:35.384Z,48.10
2022-12-17T08:37:20.918Z,50.22
2022-12-17T08:40:06.398Z,53.45
2022-12-17T08:42:51.573Z,47.70
2022-12-17T08:45:36.953Z,52.85
2022-12-17T08:48:23.194Z,51.33
2022-12-17T08:51:10.216Z,56.70
2022-12-17T08:53:55.501Z,58.22
2022-12-17T08:56:40.909Z,57.08
2022-12-17T08:59:26.866Z,57.25
2022-12-17T09:02:12.556Z,50.67
2022-12-17T09:05:00.130Z,67.47
2022-12-17T09:07:46.935Z,49.58
2022-12-17T09:10:32.448Z,55.95
2022-12-17T09:13:20.673Z,58.78
2022-12-17T09:16:10.317Z,57.08
2022-12-17T09:18:56.198Z,66.53
2022-12-17T09:21:41.949Z,58.47
2022-12-17T09:24:29.546Z,59.95
2022-12-17T09:27:15.308Z,56.17
2022-12-17T09:30:00.915Z,61.15
2022-12-17T09:32:46.672Z,59.53
2022-12-17T09:35:28.489Z,69.80
2022-12-17T09:38:15.176Z,77.38
2022-12-17T09:41:09.758Z,63.63
2022-12-17T09:44:06.482Z,62.05
2022-12-17T09:46:58.392Z,63.97
2022-12-17T09:49:46.827Z,68.43
2022-12-17T09:52:38.527Z,68.72
2022-12-17T09:55:34.461Z,68.10
2022-12-17T09:58:33.745Z,62.67
2022-12-17T10:01:19.601Z,63.72
2022-12-17T10:04:06.192Z,68.75
2022-12-17T10:06:53.717Z,66.20
2022-12-17T10:09:39.563Z,62.17
2022-12-17T10:12:32.741Z,75.68
2022-12-17T10:15:19.482Z,69.38
2022-12-17T10:18:05.276Z,67.30
2022-12-17T10:20:55.204Z,64.07
2022-12-17T10:23:44.767Z,65.15
2022-12-17T10:26:35.499Z,67.25
2022-12-17T10:29:22.875Z,67.25
2022-12-17T10:32:14.937Z,66.50
2022-12-17T10:35:05.718Z,64.43
2022-12-17T10:37:54.054Z,64.78
2022-12-17T10:40:44.593Z,71.90
2022-12-17T10:43:45.197Z,70.35
2022-12-17T10:46:31.034Z,76.35
2022-12-17T10:49:28.715Z,69.30
2022-12-17T10:52:18.864Z,73.93
2022-12-17T10:55:15.547Z,68.63
2022-12-17T10:58:02.265Z,77.43
2022-12-17T11:00:50.777Z,69.75
2022-12-17T11:03:48.683Z,75.15
2022-12-17T11:06:42.819Z,76.22
2022-12-17T11:09:43.324Z,69.55
2022-12-17T11:12:31.306Z,77.00
2022-12-17T11:15:22.852Z,75.47
2022-12-17T11:18:11.759Z,72.53
2022-12-17T11:21:06.149Z,66.68
2022-12-17T11:23:56.118Z,72.82
2022-12-17T11:26:45.743Z,60.95
2022-12-17T11:29:32.499Z,74.30
2022-12-17T11:32:39.943Z,67.72
2022-12-17T11:35:35.726Z,62.80
2022-12-17T11:38:31.539Z,53.97
2022-12-17T11:41:40.101Z,59.42
2022-12-17T11:44:37.365Z,61.80
2022-12-17T11:47:33.256Z,70.38
2022-12-17T11:50:31.591Z,69.22
2022-12-17T11:53:28.231Z,65.45
2022-12-17T11:56:21.171Z,68.30
2022-12-17T11:59:11.321Z,62.30
2022-12-17T12:02:03.153Z,67.47
2022-12-17T12:04:58.785Z,68.55
2022-12-17T12:07:55.697Z,71.75
2022-12-17T12:10:46.850Z,63.85
2022-12-17T12:13:43.309Z,70.53
2022-12-17T12:16:38.065Z,65.55
2022-12-17T12:19:37.411Z,60.35
2022-12-17T12:22:30.897Z,70.38
2022-12-17T12:28:20.972Z,68.60
2022-12-17T12:31:14.350Z,60.05
2022-12-17T12:34:08.079Z,59.83
2022-12-17T12:36:56.259Z,59.70
2022-12-17T12:39:49.537Z,61.28
2022-12-17T12:42:41.401Z,53.25
2022-12-17T12:45:55.732Z,54.83
2022-12-17T12:48:56.700Z,61.42
2022-12-17T12:51:44.836Z,62.90
2022-12-17T12:54:46.032Z,54.70
2022-12-17T12:57:48.060Z,56.58
2022-12-17T13:00:42.523Z,55.58
2022-12-17T13:03:40.043Z,64.55
2022-12-17T13:06:09.706Z,55.72
2022-12-17T13:08:38.302Z,52.30
2022-12-17T13:11:30.318Z,50.83
2022-12-17T13:14:02.509Z,55.50
2022-12-17T13:16:50.052Z,47.53
2022-12-17T13:19:22.667Z,48.88
2022-12-17T13:21:51.930Z,56.08
2022-12-17T13:24:26.496Z,67.57
2022-12-17T13:26:54.735Z,59.88
2022-12-17T13:29:28.228Z,50.95
2022-12-17T13:32:04.745Z,58.10
2022-12-17T13:34:43.668Z,59.97
2022-12-17T13:37:21.823Z,54.47
2022-12-17T13:39:57.159Z,57.85
2022-12-17T13:42:29.807Z,57.58
2022-12-17T13:44:58.874Z,66.97
2022-12-17T13:47:28.816Z,68.82
2022-12-17T13:50:32.328Z,67.25
2022-12-17T13:52:48.600Z,63.30
2022-12-17T13:55:21.122Z,60.25
2022-12-17T13:57:50.238Z,64.75
2022-12-17T14:00:24.047Z,65.43
2022-12-17T14:02:52.448Z,62.20
2022-12-17T14:05:27.326Z,61.22
2022-12-17T14:07:59.733Z,62.00
2022-12-17T14:10:27.820Z,54.88
2022-12-17T14:13:05.655Z,59.45
2022-12-17T14:15:34.063Z,58.95
2022-12-17T14:18:03.211Z,70.80
2022-12-17T14:20:33.997Z,63.35
2022-12-17T14:23:06.152Z,69.25
2022-12-17T14:25:37.927Z,66.97
2022-12-17T14:28:07.845Z,56.70
2022-12-17T14:30:46.111Z,58.15
2022-12-17T14:35:58.456Z,59.03
2022-12-17T14:38:38.266Z,57.63
2022-12-17T14:41:25.750Z,63.63
2022-12-17T14:43:58.523Z,66.32
2022-12-17T14:46:26.752Z,54.60
2022-12-17T14:49:03.573Z,56.22
2022-12-17T14:51:34.498Z,62.58
2022-12-17T14:54:20.386Z,61.35
2022-12-17T14:56:49.996Z,58.95
2022-12-17T14:59:32.740Z,62.97
2022-12-17T15:02:03.997Z,76.38
2022-12-17T15:04:33.688Z,67.88
2022-12-17T15:07:01.607Z,65.80
2022-12-17T15:09:30.987Z,63.08
2022-12-17T15:11:58.940Z,72.38
2022-12-17T15:14:26.879Z,58.72
2022-12-17T15:16:55.943Z,64.68
2022-12-17T15:19:24.185Z,72.20
2022-12-17T15:21:52.199Z,65.25
2022-12-17T15:24:22.040Z,62.25
2022-12-17T15:26:51.400Z,61.08
2022-12-17T15:29:19.399Z,64.93
2022-12-17T15:31:47.489Z,63.55
2022-12-17T15:34:15.421Z,59.65
2022-12-17T15:36:43.302Z,63.45
2022-12-17T15:39:12.193Z,60.70
2022-12-17T15:41:57.773Z,64.57
2022-12-17T15:44:27.975Z,55.50
2022-12-17T15:46:55.998Z,60.95
2022-12-17T15:49:24.059Z,63.13
2022-12-17T15:51:52.059Z,63.45
2022-12-17T15:54:20.127Z,64.50
2022-12-17T15:56:54.545Z,67.20
2022-12-17T15:59:22.877Z,64.28
2022-12-17T16:01:52.275Z,69.28
2022-12-17T16:04:24.843Z,59.63
2022-12-17T16:09:24.500Z,70.53
2022-12-17T16:11:54.903Z,67.00
2022-12-17T16:14:23.211Z,60.85
2022-12-17T16:16:53.043Z,60.75
2022-12-17T16:19:20.978Z,62.15
2022-12-17T16:21:49.080Z,57.90
2022-12-17T16:24:17.078Z,61.70
2022-12-17T16:26:45.072Z,53.50
2022-12-17T16:29:12.945Z,64.35
2022-12-17T16:31:40.842Z,56.88
2022-12-17T16:34:10.802Z,59.35
2022-12-17T16:36:38.838Z,61.42
2022-12-17T16:39:07.169Z,61.28
2022-12-17T16:41:35.659Z,66.65
2022-12-17T16:44:04.340Z,58.17
2022-12-17T16:46:34.256Z,56.22
2022-12-17T16:49:06.505Z,64.53
2022-12-17T16:51:35.784Z,62.67
2022-12-17T16:54:06.338Z,65.07
2022-12-17T16:56:39.682Z,67.93
2022-12-17T16:59:09.574Z,64.80
2022-12-17T17:01:39.316Z,66.20
2022-12-17T17:04:09.405Z,68.00
2022-12-17T17:06:41.972Z,68.20
2022-12-17T17:09:10.310Z,80.93
2022-12-17T17:11:39.037Z,71.40
2022-12-17T17:14:08.244Z,77.50
2022-12-17T17:16:36.485Z,81.80
2022-12-17T17:19:05.694Z,71.85
2022-12-17T17:21:35.667Z,77.72
2022-12-17T17:24:08.091Z,76.22
2022-12-17T17:26:36.109Z,71.75
2022-12-17T17:29:05.081Z,68.93
2022-12-17T17:32:08.673Z,69.72
2022-12-17T17:34:21.203Z,65.53
2022-12-17T17:36:49.400Z,69.75
2022-12-17T17:39:18.606Z,71.90
2022-12-17T17:41:46.517Z,72.35
2022-12-17T17:44:15.426Z,68.55
2022-12-17T17:46:43.974Z,70.95
2022-12-17T17:49:12.613Z,69.60
2022-12-17T17:54:32.586Z,72.10
2022-12-17T17:57:00.545Z,69.93
2022-12-17T17:59:33.355Z,62.65
2022-12-17T18:02:02.491Z,64.40
2022-12-17T18:04:30.979Z,70.03
2022-12-17T18:09:48.194Z,65.28
2022-12-17T18:12:33.751Z,62.42
2022-12-17T18:15:18.375Z,61.63
2022-12-17T18:17:48.329Z,54.22
2022-12-17T18:20:16.367Z,57.53
2022-12-17T18:22:46.097Z,57.60
2022-12-17T18:25:16.561Z,57.08
2022-12-17T18:27:44.525Z,59.20
2022-12-17T18:30:13.435Z,60.15
2022-12-17T18:32:42.344Z,51.67
2022-12-17T18:35:10.659Z,63.97
2022-12-17T18:37:39.029Z,61.55
2022-12-17T18:40:08.272Z,60.25
2022-12-17T18:42:55.064Z,51.92
2022-12-17T18:45:23.206Z,63.75
2022-12-17T18:47:51.995Z,58.80
2022-12-17T18:50:20.096Z,65.95
2022-12-17T18:52:47.957Z,62.72
2022-12-17T18:55:16.343Z,61.78
2022-12-17T18:57:45.607Z,55.20
2022-12-17T19:00:14.894Z,61.15
2022-12-17T19:02:42.906Z,58.58
2022-12-17T19:05:10.956Z,66.47
2022-12-17T19:07:38.777Z,54.83
2022-12-17T19:10:07.701Z,59.05
2022-12-17T19:12:35.853Z,51.63
2022-12-17T19:15:05.758Z,52.10
2022-12-17T19:17:34.507Z,54.92
2022-12-17T19:20:02.477Z,49.97
2022-12-17T19:22:30.446Z,54.03
2022-12-17T19:24:58.325Z,55.97
2022-12-17T19:27:26.327Z,54.30
2022-12-17T19:29:56.432Z,53.75
2022-12-17T19:32:25.812Z,51.00
2022-12-17T19:34:53.822Z,50.40
2022-12-17T19:37:21.669Z,50.53
2022-12-17T19:39:49.524Z,54.20
2022-12-17T19:42:25.459Z,50.45
2022-12-17T19:44:54.028Z,55.25
2022-12-17T19:47:22.958Z,45.83
2022-12-17T19:49:52.501Z,54.38
2022-12-17T19:52:20.351Z,56.78
2022-12-17T19:54:49.970Z,53.28
2022-12-17T19:57:17.898Z,58.55
2022-12-17T19:59:45.943Z,53.92
2022-12-17T20:02:15.670Z,53.00
2022-12-17T20:04:43.786Z,54.00
2022-12-17T20:07:12.977Z,64.72
2022-12-17T20:09:44.099Z,62.15
2022-12-17T20:12:12.517Z,55.90
2022-12-17T20:14:40.459Z,54.08
2022-12-17T20:17:08.512Z,58.10
2022-12-17T20:19:36.609Z,59.22
2022-12-17T20:22:06.944Z,53.72
2022-12-17T20:24:37.352Z,50.67
2022-12-17T20:27:05.850Z,52.15
2022-12-17T20:29:33.820Z,56.15
2022-12-17T20:32:03.158Z,49.72
2022-12-17T20:34:31.093Z,58.30
2022-12-17T20:36:58.993Z,51.05
2022-12-17T20:39:28.215Z,51.55
2022-12-17T20:41:58.146Z,51.38
2022-12-17T20:44:26.241Z,59.28
2022-12-17T20:46:54.207Z,47.05
2022-12-17T20:49:24.850Z,56.85
2022-12-17T20:51:52.794Z,44.28
2022-12-17T20:54:21.616Z,56.72
2022-12-17T20:56:49.943Z,57.53
2022-12-17T20:59:20.785Z,44.85
2022-12-17T21:01:55.594Z,53.63
2022-12-17T21:04:24.351Z,56.80
2022-12-17T21:06:52.969Z,52.85
2022-12-17T21:09:22.567Z,49.88
2022-12-17T21:11:50.847Z,47.05
2022-12-17T21:14:20.874Z,57.35
2022-12-17T21:16:49.383Z,52.00
2022-12-17T21:19:20.127Z,51.05
2022-12-17T21:21:48.379Z,55.05
2022-12-17T21:24:16.227Z,57.67
2022-12-17T21:26:45.324Z,50.63
2022-12-17T21:29:14.415Z,47.10
2022-12-17T21:31:46.558Z,51.60
2022-12-17T21:34:17.321Z,50.50
2022-12-17T21:36:46.956Z,44.95
2022-12-17T21:39:16.774Z,57.28
2022-12-17T21:42:06.906Z,50.60
2022-12-17T21:44:35.158Z,50.08
2022-12-17T21:47:04.631Z,48.25
2022-12-17T21:49:32.581Z,51.17
2022-12-17T21:52:01.918Z,51.42
2022-12-17T21:54:29.991Z,46.78
2022-12-17T21:56:57.897Z,55.00
2022-12-17T21:59:25.767Z,52.20
2022-12-17T22:01:57.323Z,50.13
2022-12-17T22:04:27.423Z,51.00
2022-12-17T22:06:59.111Z,50.58
2022-12-17T22:09:49.238Z,47.80
2022-12-17T22:12:40.542Z,48.22
2022-12-17T22:15:11.046Z,45.95
2022-12-17T22:17:41.413Z,50.40
2022-12-17T22:20:11.873Z,55.35
2022-12-17T22:22:39.741Z,43.47
2022-12-17T22:25:10.842Z,56.97
2022-12-17T22:27:40.059Z,47.17
2022-12-17T22:30:30.355Z,50.72
2022-12-17T22:33:02.232Z,49.95
2022-12-17T22:37:45.424Z,52.42
2022-12-17T22:41:06.282Z,47.20
2022-12-17T22:44:36.378Z,45.67
2022-12-17T22:44:42.605Z,53.78
2022-12-17T22:47:09.664Z,60.45
2022-12-17T22:49:39.205Z,46.55
2022-12-17T22:52:08.626Z,49.83
2022-12-17T22:54:36.741Z,42.55
2022-12-17T22:57:35.813Z,56.30
2022-12-17T22:59:52.954Z,54.50
2022-12-17T23:02:20.870Z,45.15
2022-12-17T23:04:48.930Z,48.42
2022-12-17T23:07:18.162Z,49.88
2022-12-17T23:09:46.058Z,44.92
2022-12-17T23:12:36.800Z,47.08
2022-12-17T23:15:07.746Z,51.17
2022-12-17T23:17:35.647Z,60.85
2022-12-17T23:20:03.594Z,50.50
2022-12-17T23:22:34.377Z,49.13
2022-12-17T23:25:02.318Z,53.53
2022-12-17T23:27:30.382Z,52.88
2022-12-17T23:29:58.845Z,50.25
2022-12-17T23:32:27.330Z,61.03
2022-12-17T23:34:55.220Z,50.70
2022-12-17T23:37:23.117Z,50.42
2022-12-17T23:39:52.372Z,44.47
2022-12-17T23:42:20.236Z,48.53
2022-12-17T23:44:48.092Z,49.97
2022-12-17T23:47:16.029Z,49.13
2022-12-17T23:49:43.947Z,53.42
2022-12-17T23:52:11.876Z,47.15
2022-12-17T23:54:39.701Z,50.13
2022-12-17T23:57:09.218Z,46.53
2022-12-17T23:59:37.093Z,48.85
